sensor_id;sensor_type;location;lat;lon;timestamp;temperature;humidity
6206;DHT22;3136;48.788;9.772;2022-12-29T00:01:24;3.10;1.00
6206;DHT22;3136;48.788;9.772;2022-12-29T00:03:49;3.10;1.00
6206;DHT22;3136;48.788;9.772;2022-12-29T00:06:15;3.00;1.00
6206;DHT22;3136;48.788;9.772;2022-12-29T00:08:40;4.20;1.00
6206;DHT22;3136;48.788;9.772;2022-12-29T00:11:18;3.00;1.00
6206;DHT22;3136;48.788;9.772;2022-12-29T00:13:44;3.00;1.00
6206;DHT22;3136;48.788;9.772;2022-12-29T00:16:29;3.00;1.00
6206;DHT22;3136;48.788;9.772;2022-12-29T00:18:55;3.10;1.00
6206;DHT22;3136;48.788;9.772;2022-12-29T00:21:22;3.10;1.00
6206;DHT22;3136;48.788;9.772;2022-12-29T00:24:20;3.10;1.00
6206;DHT22;3136;48.788;9.772;2022-12-29T00:29:48;3.20;1.00
6206;DHT22;3136;48.788;9.772;2022-12-29T00:32:33;3.20;1.00
6206;DHT22;3136;48.788;9.772;2022-12-29T00:35:29;3.20;1.00
6206;DHT22;3136;48.788;9.772;2022-12-29T00:37:57;3.30;1.00
6206;DHT22;3136;48.788;9.772;2022-12-29T00:40:42;3.30;1.00
6206;DHT22;3136;48.788;9.772;2022-12-29T00:43:26;3.30;1.00
6206;DHT22;3136;48.788;9.772;2022-12-29T00:46:10;3.30;1.00
6206;DHT22;3136;48.788;9.772;2022-12-29T00:48:36;3.40;1.00
6206;DHT22;3136;48.788;9.772;2022-12-29T00:51:20;3.40;1.00
6206;DHT22;3136;48.788;9.772;2022-12-29T00:53:45;3.40;1.00
6206;DHT22;3136;48.788;9.772;2022-12-29T00:56:11;3.40;1.00
6206;DHT22;3136;48.788;9.772;2022-12-29T00:58:36;3.50;1.00
6206;DHT22;3136;48.788;9.772;2022-12-29T01:01:03;3.50;1.00
6206;DHT22;3136;48.788;9.772;2022-12-29T01:03:29;3.50;1.00
6206;DHT22;3136;48.788;9.772;2022-12-29T01:05:54;3.50;1.00
6206;DHT22;3136;48.788;9.772;2022-12-29T01:08:20;3.60;1.00
6206;DHT22;3136;48.788;9.772;2022-12-29T01:10:46;3.60;1.00
6206;DHT22;3136;48.788;9.772;2022-12-29T01:13:11;3.60;1.00
6206;DHT22;3136;48.788;9.772;2022-12-29T01:15:37;3.60;1.00
6206;DHT22;3136;48.788;9.772;2022-12-29T01:18:02;3.70;1.00
6206;DHT22;3136;48.788;9.772;2022-12-29T01:20:28;3.70;1.00
6206;DHT22;3136;48.788;9.772;2022-12-29T01:22:54;3.70;1.00
6206;DHT22;3136;48.788;9.772;2022-12-29T01:25:20;3.80;1.00
6206;DHT22;3136;48.788;9.772;2022-12-29T01:27:45;3.80;1.00
6206;DHT22;3136;48.788;9.772;2022-12-29T01:30:11;3.80;1.00
6206;DHT22;3136;48.788;9.772;2022-12-29T01:32:37;3.90;1.00
6206;DHT22;3136;48.788;9.772;2022-12-29T01:35:03;3.90;1.00
6206;DHT22;3136;48.788;9.772;2022-12-29T01:37:28;3.90;1.00
6206;DHT22;3136;48.788;9.772;2022-12-29T01:39:54;3.90;1.00
6206;DHT22;3136;48.788;9.772;2022-12-29T01:42:23;3.90;1.00
6206;DHT22;3136;48.788;9.772;2022-12-29T01:47:35;4.00;1.00
6206;DHT22;3136;48.788;9.772;2022-12-29T01:50:08;4.00;1.00
6206;DHT22;3136;48.788;9.772;2022-12-29T01:52:38;4.00;1.00
6206;DHT22;3136;48.788;9.772;2022-12-29T01:55:07;4.00;1.00
6206;DHT22;3136;48.788;9.772;2022-12-29T01:57:38;4.00;1.00
6206;DHT22;3136;48.788;9.772;2022-12-29T02:00:08;4.00;1.00
6206;DHT22;3136;48.788;9.772;2022-12-29T02:02:35;4.00;1.00
6206;DHT22;3136;48.788;9.772;2022-12-29T02:05:10;4.00;1.00
6206;DHT22;3136;48.788;9.772;2022-12-29T02:07:37;4.00;1.00
6206;DHT22;3136;48.788;9.772;2022-12-29T02:10:03;5.10;1.00
6206;DHT22;3136;48.788;9.772;2022-12-29T02:12:29;4.10;1.00
6206;DHT22;3136;48.788;9.772;2022-12-29T02:14:58;4.10;1.00
6206;DHT22;3136;48.788;9.772;2022-12-29T02:34:47;4.30;1.00
6206;DHT22;3136;48.788;9.772;2022-12-29T02:43:09;4.30;1.00
6206;DHT22;3136;48.788;9.772;2022-12-29T02:45:47;4.30;1.00
6206;DHT22;3136;48.788;9.772;2022-12-29T02:48:41;4.30;1.00
6206;DHT22;3136;48.788;9.772;2022-12-29T02:51:20;4.40;1.00
6206;DHT22;3136;48.788;9.772;2022-12-29T02:53:49;4.40;1.00
6206;DHT22;3136;48.788;9.772;2022-12-29T02:56:34;4.30;1.00
6206;DHT22;3136;48.788;9.772;2022-12-29T02:59:00;4.20;1.00
6206;DHT22;3136;48.788;9.772;2022-12-29T03:04:31;4.20;1.00
6206;DHT22;3136;48.788;9.772;2022-12-29T03:07:04;4.20;1.00
6206;DHT22;3136;48.788;9.772;2022-12-29T03:09:41;4.20;1.00
6206;DHT22;3136;48.788;9.772;2022-12-29T03:15:00;4.20;1.00
6206;DHT22;3136;48.788;9.772;2022-12-29T03:17:53;4.20;1.00
6206;DHT22;3136;48.788;9.772;2022-12-29T03:20:32;4.30;1.00
6206;DHT22;3136;48.788;9.772;2022-12-29T03:23:05;4.20;1.00
6206;DHT22;3136;48.788;9.772;2022-12-29T03:25:38;4.20;1.00
6206;DHT22;3136;48.788;9.772;2022-12-29T03:28:09;4.20;1.00
6206;DHT22;3136;48.788;9.772;2022-12-29T03:30:38;4.20;1.00
6206;DHT22;3136;48.788;9.772;2022-12-29T03:33:08;4.30;1.00
6206;DHT22;3136;48.788;9.772;2022-12-29T03:35:37;4.30;1.00
6206;DHT22;3136;48.788;9.772;2022-12-29T03:40:42;4.40;1.00
6206;DHT22;3136;48.788;9.772;2022-12-29T03:43:09;4.40;1.00
6206;DHT22;3136;48.788;9.772;2022-12-29T03:45:36;4.40;1.00
6206;DHT22;3136;48.788;9.772;2022-12-29T03:48:02;4.40;1.00
6206;DHT22;3136;48.788;9.772;2022-12-29T03:50:27;4.40;1.00
6206;DHT22;3136;48.788;9.772;2022-12-29T03:52:53;4.40;1.00
6206;DHT22;3136;48.788;9.772;2022-12-29T03:55:18;4.40;1.00
6206;DHT22;3136;48.788;9.772;2022-12-29T03:57:44;4.30;1.00
6206;DHT22;3136;48.788;9.772;2022-12-29T04:00:10;4.30;1.00
6206;DHT22;3136;48.788;9.772;2022-12-29T04:02:36;4.20;1.00
6206;DHT22;3136;48.788;9.772;2022-12-29T04:05:01;4.20;1.00
6206;DHT22;3136;48.788;9.772;2022-12-29T04:07:27;4.20;1.00
6206;DHT22;3136;48.788;9.772;2022-12-29T04:09:52;4.20;1.00
6206;DHT22;3136;48.788;9.772;2022-12-29T04:12:18;4.20;1.00
6206;DHT22;3136;48.788;9.772;2022-12-29T04:14:43;4.10;1.00
6206;DHT22;3136;48.788;9.772;2022-12-29T04:17:09;4.20;1.00
6206;DHT22;3136;48.788;9.772;2022-12-29T04:19:34;4.20;1.00
6206;DHT22;3136;48.788;9.772;2022-12-29T04:22:00;4.20;1.00
6206;DHT22;3136;48.788;9.772;2022-12-29T04:24:26;4.20;1.00
6206;DHT22;3136;48.788;9.772;2022-12-29T04:26:51;4.20;1.00
6206;DHT22;3136;48.788;9.772;2022-12-29T04:29:17;4.20;1.00
6206;DHT22;3136;48.788;9.772;2022-12-29T04:31:42;4.20;1.00
6206;DHT22;3136;48.788;9.772;2022-12-29T04:34:08;4.20;1.00
6206;DHT22;3136;48.788;9.772;2022-12-29T04:36:33;4.20;1.00
6206;DHT22;3136;48.788;9.772;2022-12-29T04:38:59;4.20;1.00
6206;DHT22;3136;48.788;9.772;2022-12-29T04:41:25;4.10;1.00
6206;DHT22;3136;48.788;9.772;2022-12-29T04:43:50;4.10;1.00
6206;DHT22;3136;48.788;9.772;2022-12-29T04:46:16;4.00;1.00
6206;DHT22;3136;48.788;9.772;2022-12-29T04:48:42;4.00;1.00
6206;DHT22;3136;48.788;9.772;2022-12-29T04:51:07;4.00;1.00
6206;DHT22;3136;48.788;9.772;2022-12-29T04:53:33;4.00;1.00
6206;DHT22;3136;48.788;9.772;2022-12-29T04:55:58;4.00;1.00
6206;DHT22;3136;48.788;9.772;2022-12-29T04:58:24;4.10;1.00
6206;DHT22;3136;48.788;9.772;2022-12-29T05:00:50;4.10;1.00
6206;DHT22;3136;48.788;9.772;2022-12-29T05:03:16;4.10;1.00
6206;DHT22;3136;48.788;9.772;2022-12-29T05:05:42;4.10;1.00
6206;DHT22;3136;48.788;9.772;2022-12-29T05:08:07;4.00;1.00
6206;DHT22;3136;48.788;9.772;2022-12-29T05:10:33;4.00;1.00
6206;DHT22;3136;48.788;9.772;2022-12-29T05:12:58;3.90;1.00
6206;DHT22;3136;48.788;9.772;2022-12-29T05:15:24;3.90;1.00
6206;DHT22;3136;48.788;9.772;2022-12-29T05:17:49;3.80;1.00
6206;DHT22;3136;48.788;9.772;2022-12-29T05:20:15;3.80;1.00
6206;DHT22;3136;48.788;9.772;2022-12-29T05:22:41;3.70;1.00
6206;DHT22;3136;48.788;9.772;2022-12-29T05:25:07;3.70;1.00
6206;DHT22;3136;48.788;9.772;2022-12-29T05:27:32;3.60;1.00
6206;DHT22;3136;48.788;9.772;2022-12-29T05:29:58;3.60;1.00
6206;DHT22;3136;48.788;9.772;2022-12-29T05:32:23;3.50;1.00
6206;DHT22;3136;48.788;9.772;2022-12-29T05:34:49;3.50;1.00
6206;DHT22;3136;48.788;9.772;2022-12-29T05:37:15;3.50;1.00
6206;DHT22;3136;48.788;9.772;2022-12-29T05:39:41;3.40;1.00
6206;DHT22;3136;48.788;9.772;2022-12-29T05:42:06;3.40;1.00
6206;DHT22;3136;48.788;9.772;2022-12-29T05:44:32;3.30;1.00
6206;DHT22;3136;48.788;9.772;2022-12-29T05:46:57;4.70;1.00
6206;DHT22;3136;48.788;9.772;2022-12-29T05:49:23;3.30;1.00
6206;DHT22;3136;48.788;9.772;2022-12-29T05:51:49;3.20;1.00
6206;DHT22;3136;48.788;9.772;2022-12-29T05:54:14;3.20;1.00
6206;DHT22;3136;48.788;9.772;2022-12-29T05:56:40;3.20;1.00
6206;DHT22;3136;48.788;9.772;2022-12-29T05:59:05;3.20;1.00
6206;DHT22;3136;48.788;9.772;2022-12-29T06:01:31;3.20;1.00
6206;DHT22;3136;48.788;9.772;2022-12-29T06:03:56;3.20;1.00
6206;DHT22;3136;48.788;9.772;2022-12-29T06:06:22;3.20;1.00
6206;DHT22;3136;48.788;9.772;2022-12-29T06:08:47;3.20;1.00
6206;DHT22;3136;48.788;9.772;2022-12-29T06:11:13;3.10;1.00
6206;DHT22;3136;48.788;9.772;2022-12-29T06:13:39;3.10;1.00
6206;DHT22;3136;48.788;9.772;2022-12-29T06:16:04;3.00;1.00
6206;DHT22;3136;48.788;9.772;2022-12-29T06:18:30;3.00;1.00
6206;DHT22;3136;48.788;9.772;2022-12-29T06:21:00;3.00;1.00
6206;DHT22;3136;48.788;9.772;2022-12-29T06:23:26;3.10;1.00
6206;DHT22;3136;48.788;9.772;2022-12-29T06:25:52;3.10;1.00
6206;DHT22;3136;48.788;9.772;2022-12-29T06:28:17;3.10;1.00
6206;DHT22;3136;48.788;9.772;2022-12-29T06:30:44;3.00;1.00
6206;DHT22;3136;48.788;9.772;2022-12-29T06:33:10;3.00;1.00
6206;DHT22;3136;48.788;9.772;2022-12-29T06:35:36;3.00;1.00
6206;DHT22;3136;48.788;9.772;2022-12-29T06:38:02;3.00;1.00
6206;DHT22;3136;48.788;9.772;2022-12-29T06:40:27;3.00;1.00
6206;DHT22;3136;48.788;9.772;2022-12-29T06:42:53;3.00;1.00
6206;DHT22;3136;48.788;9.772;2022-12-29T06:45:19;3.10;1.00
6206;DHT22;3136;48.788;9.772;2022-12-29T06:47:44;3.20;1.00
6206;DHT22;3136;48.788;9.772;2022-12-29T06:50:10;3.30;1.00
6206;DHT22;3136;48.788;9.772;2022-12-29T06:52:35;3.30;1.00
6206;DHT22;3136;48.788;9.772;2022-12-29T06:55:01;3.40;1.00
6206;DHT22;3136;48.788;9.772;2022-12-29T06:57:26;3.40;1.00
6206;DHT22;3136;48.788;9.772;2022-12-29T06:59:52;3.40;1.00
6206;DHT22;3136;48.788;9.772;2022-12-29T07:02:21;3.30;1.00
6206;DHT22;3136;48.788;9.772;2022-12-29T07:04:46;3.30;1.00
6206;DHT22;3136;48.788;9.772;2022-12-29T07:07:12;3.20;1.00
6206;DHT22;3136;48.788;9.772;2022-12-29T07:09:37;3.20;1.00
6206;DHT22;3136;48.788;9.772;2022-12-29T07:12:03;3.10;1.00
6206;DHT22;3136;48.788;9.772;2022-12-29T07:14:29;3.10;1.00
6206;DHT22;3136;48.788;9.772;2022-12-29T07:16:54;3.10;1.00
6206;DHT22;3136;48.788;9.772;2022-12-29T07:19:20;3.00;1.00
6206;DHT22;3136;48.788;9.772;2022-12-29T07:21:45;3.00;1.00
6206;DHT22;3136;48.788;9.772;2022-12-29T07:24:11;3.00;1.00
6206;DHT22;3136;48.788;9.772;2022-12-29T07:26:36;3.00;1.00
6206;DHT22;3136;48.788;9.772;2022-12-29T07:29:03;3.00;1.00
6206;DHT22;3136;48.788;9.772;2022-12-29T07:31:29;3.00;1.00
6206;DHT22;3136;48.788;9.772;2022-12-29T07:33:55;3.10;1.00
6206;DHT22;3136;48.788;9.772;2022-12-29T07:36:20;3.20;1.00
6206;DHT22;3136;48.788;9.772;2022-12-29T07:38:46;3.20;1.00
6206;DHT22;3136;48.788;9.772;2022-12-29T07:41:12;3.20;1.00
6206;DHT22;3136;48.788;9.772;2022-12-29T07:43:37;3.20;1.00
6206;DHT22;3136;48.788;9.772;2022-12-29T07:46:03;3.20;1.00
6206;DHT22;3136;48.788;9.772;2022-12-29T07:48:28;3.20;1.00
6206;DHT22;3136;48.788;9.772;2022-12-29T07:50:54;3.20;1.00
6206;DHT22;3136;48.788;9.772;2022-12-29T07:53:20;3.20;1.00
6206;DHT22;3136;48.788;9.772;2022-12-29T07:55:45;3.20;1.00
6206;DHT22;3136;48.788;9.772;2022-12-29T07:58:11;3.20;1.00
6206;DHT22;3136;48.788;9.772;2022-12-29T08:00:38;3.20;1.00
6206;DHT22;3136;48.788;9.772;2022-12-29T08:03:03;3.30;1.00
6206;DHT22;3136;48.788;9.772;2022-12-29T08:05:31;3.30;1.00
6206;DHT22;3136;48.788;9.772;2022-12-29T08:07:57;3.40;1.00
6206;DHT22;3136;48.788;9.772;2022-12-29T08:10:23;3.40;1.00
6206;DHT22;3136;48.788;9.772;2022-12-29T08:12:48;3.40;1.00
6206;DHT22;3136;48.788;9.772;2022-12-29T08:15:14;3.50;1.00
6206;DHT22;3136;48.788;9.772;2022-12-29T08:17:40;3.60;1.00
6206;DHT22;3136;48.788;9.772;2022-12-29T08:20:05;3.60;1.00
6206;DHT22;3136;48.788;9.772;2022-12-29T08:22:31;3.70;1.00
6206;DHT22;3136;48.788;9.772;2022-12-29T08:24:57;3.80;1.00
6206;DHT22;3136;48.788;9.772;2022-12-29T08:27:22;3.90;1.00
6206;DHT22;3136;48.788;9.772;2022-12-29T08:29:48;4.00;1.00
6206;DHT22;3136;48.788;9.772;2022-12-29T08:32:14;4.10;1.00
6206;DHT22;3136;48.788;9.772;2022-12-29T08:34:39;4.20;1.00
6206;DHT22;3136;48.788;9.772;2022-12-29T08:37:05;4.30;1.00
6206;DHT22;3136;48.788;9.772;2022-12-29T08:39:30;4.40;1.00
6206;DHT22;3136;48.788;9.772;2022-12-29T08:41:56;4.60;1.00
6206;DHT22;3136;48.788;9.772;2022-12-29T08:44:22;4.80;2.30
6206;DHT22;3136;48.788;9.772;2022-12-29T08:46:47;4.90;10.00
6206;DHT22;3136;48.788;9.772;2022-12-29T08:49:13;5.10;14.30
6206;DHT22;3136;48.788;9.772;2022-12-29T08:51:39;5.20;16.70
6206;DHT22;3136;48.788;9.772;2022-12-29T08:54:05;5.40;18.60
6206;DHT22;3136;48.788;9.772;2022-12-29T08:56:30;5.50;18.70
6206;DHT22;3136;48.788;9.772;2022-12-29T08:58:56;5.60;19.30
6206;DHT22;3136;48.788;9.772;2022-12-29T09:01:22;5.70;17.40
6206;DHT22;3136;48.788;9.772;2022-12-29T09:03:47;5.80;14.20
6206;DHT22;3136;48.788;9.772;2022-12-29T09:06:15;5.90;11.00
6206;DHT22;3136;48.788;9.772;2022-12-29T09:08:40;4.40;5.10
6206;DHT22;3136;48.788;9.772;2022-12-29T09:11:16;6.10;4.20
6206;DHT22;3136;48.788;9.772;2022-12-29T09:13:42;6.60;1.00
6206;DHT22;3136;48.788;9.772;2022-12-29T09:16:08;7.00;1.00
6206;DHT22;3136;48.788;9.772;2022-12-29T09:18:33;7.30;1.00
6206;DHT22;3136;48.788;9.772;2022-12-29T09:21:01;7.60;1.00
6206;DHT22;3136;48.788;9.772;2022-12-29T09:23:27;7.90;1.00
6206;DHT22;3136;48.788;9.772;2022-12-29T09:25:53;8.30;1.00
6206;DHT22;3136;48.788;9.772;2022-12-29T09:28:20;8.60;99.90
6206;DHT22;3136;48.788;9.772;2022-12-29T09:30:45;9.00;1.00
6206;DHT22;3136;48.788;9.772;2022-12-29T09:33:11;9.20;99.90
6206;DHT22;3136;48.788;9.772;2022-12-29T09:35:37;9.50;1.00
6206;DHT22;3136;48.788;9.772;2022-12-29T09:38:02;9.70;1.00
6206;DHT22;3136;48.788;9.772;2022-12-29T09:40:32;9.80;1.00
6206;DHT22;3136;48.788;9.772;2022-12-29T09:48:32;10.30;96.10
6206;DHT22;3136;48.788;9.772;2022-12-29T09:51:03;10.50;1.00
6206;DHT22;3136;48.788;9.772;2022-12-29T09:53:45;10.60;1.00
6206;DHT22;3136;48.788;9.772;2022-12-29T09:56:17;10.60;1.00
6206;DHT22;3136;48.788;9.772;2022-12-29T09:58:49;10.70;1.00
6206;DHT22;3136;48.788;9.772;2022-12-29T10:01:38;10.80;1.00
6206;DHT22;3136;48.788;9.772;2022-12-29T10:04:07;11.10;1.00
6206;DHT22;3136;48.788;9.772;2022-12-29T10:06:46;11.30;99.90
6206;DHT22;3136;48.788;9.772;2022-12-29T10:17:22;11.50;99.90
6206;DHT22;3136;48.788;9.772;2022-12-29T10:20:06;11.50;99.90
6206;DHT22;3136;48.788;9.772;2022-12-29T10:25:20;12.00;99.90
6206;DHT22;3136;48.788;9.772;2022-12-29T10:27:48;12.10;99.90
6206;DHT22;3136;48.788;9.772;2022-12-29T10:30:14;12.20;99.90
6206;DHT22;3136;48.788;9.772;2022-12-29T10:32:45;12.20;99.90
6206;DHT22;3136;48.788;9.772;2022-12-29T10:40:38;12.30;99.90
6206;DHT22;3136;48.788;9.772;2022-12-29T10:43:22;12.30;99.90
6206;DHT22;3136;48.788;9.772;2022-12-29T10:45:49;12.10;99.90
6206;DHT22;3136;48.788;9.772;2022-12-29T10:48:22;12.00;99.90
6206;DHT22;3136;48.788;9.772;2022-12-29T10:50:50;12.10;99.90
6206;DHT22;3136;48.788;9.772;2022-12-29T10:53:25;12.10;99.90
6206;DHT22;3136;48.788;9.772;2022-12-29T10:55:52;12.10;99.90
6206;DHT22;3136;48.788;9.772;2022-12-29T10:58:19;12.20;99.90
6206;DHT22;3136;48.788;9.772;2022-12-29T11:00:53;12.20;99.90
6206;DHT22;3136;48.788;9.772;2022-12-29T11:06:26;12.30;99.90
6206;DHT22;3136;48.788;9.772;2022-12-29T11:08:57;12.40;99.90
6206;DHT22;3136;48.788;9.772;2022-12-29T11:11:36;12.50;99.90
6206;DHT22;3136;48.788;9.772;2022-12-29T11:14:29;12.50;99.90
6206;DHT22;3136;48.788;9.772;2022-12-29T11:17:00;12.30;99.90
6206;DHT22;3136;48.788;9.772;2022-12-29T11:19:31;12.40;99.90
6206;DHT22;3136;48.788;9.772;2022-12-29T11:22:28;12.50;99.90
6206;DHT22;3136;48.788;9.772;2022-12-29T11:24:55;12.50;99.90
6206;DHT22;3136;48.788;9.772;2022-12-29T11:27:29;14.70;99.90
6206;DHT22;3136;48.788;9.772;2022-12-29T11:29:55;12.40;99.90
6206;DHT22;3136;48.788;9.772;2022-12-29T11:32:23;12.80;99.90
6206;DHT22;3136;48.788;9.772;2022-12-29T11:34:49;12.40;99.90
6206;DHT22;3136;48.788;9.772;2022-12-29T11:37:27;12.40;99.90
6206;DHT22;3136;48.788;9.772;2022-12-29T11:40:05;12.50;99.90
6206;DHT22;3136;48.788;9.772;2022-12-29T11:42:39;12.60;99.90
6206;DHT22;3136;48.788;9.772;2022-12-29T11:47:41;12.60;99.90
6206;DHT22;3136;48.788;9.772;2022-12-29T11:50:08;12.70;99.90
6206;DHT22;3136;48.788;9.772;2022-12-29T11:52:41;12.70;99.90
6206;DHT22;3136;48.788;9.772;2022-12-29T11:55:18;12.80;99.90
6206;DHT22;3136;48.788;9.772;2022-12-29T11:57:45;14.40;99.90
6206;DHT22;3136;48.788;9.772;2022-12-29T12:00:20;12.80;99.90
6206;DHT22;3136;48.788;9.772;2022-12-29T12:03:01;12.80;99.90
6206;DHT22;3136;48.788;9.772;2022-12-29T12:05:41;12.80;99.90
6206;DHT22;3136;48.788;9.772;2022-12-29T12:11:26;12.90;99.90
6206;DHT22;3136;48.788;9.772;2022-12-29T12:14:20;12.90;99.90
6206;DHT22;3136;48.788;9.772;2022-12-29T12:16:50;12.90;99.90
6206;DHT22;3136;48.788;9.772;2022-12-29T12:19:34;13.00;99.90
6206;DHT22;3136;48.788;9.772;2022-12-29T12:24:55;13.10;99.90
6206;DHT22;3136;48.788;9.772;2022-12-29T12:27:33;13.00;99.90
6206;DHT22;3136;48.788;9.772;2022-12-29T12:30:14;13.00;99.90
6206;DHT22;3136;48.788;9.772;2022-12-29T12:38:34;12.90;99.90
6206;DHT22;3136;48.788;9.772;2022-12-29T12:41:08;12.80;99.90
6206;DHT22;3136;48.788;9.772;2022-12-29T12:52:12;12.70;99.90
6206;DHT22;3136;48.788;9.772;2022-12-29T12:54:57;12.50;99.90
6206;DHT22;3136;48.788;9.772;2022-12-29T13:00:17;12.50;99.90
6206;DHT22;3136;48.788;9.772;2022-12-29T13:05:41;12.40;99.90
6206;DHT22;3136;48.788;9.772;2022-12-29T13:16:27;12.10;1.00
6206;DHT22;3136;48.788;9.772;2022-12-29T13:27:35;12.20;1.00
6206;DHT22;3136;48.788;9.772;2022-12-29T13:30:09;12.30;1.00
6206;DHT22;3136;48.788;9.772;2022-12-29T13:32:56;12.30;1.00
6206;DHT22;3136;48.788;9.772;2022-12-29T13:35:37;12.20;1.00
6206;DHT22;3136;48.788;9.772;2022-12-29T13:38:32;12.20;1.00
6206;DHT22;3136;48.788;9.772;2022-12-29T13:41:06;12.20;1.00
6206;DHT22;3136;48.788;9.772;2022-12-29T13:43:35;12.20;1.00
6206;DHT22;3136;48.788;9.772;2022-12-29T13:46:27;12.20;1.00
6206;DHT22;3136;48.788;9.772;2022-12-29T13:51:26;12.30;1.00
6206;DHT22;3136;48.788;9.772;2022-12-29T13:54:12;12.30;1.00
6206;DHT22;3136;48.788;9.772;2022-12-29T13:56:49;12.20;1.00
6206;DHT22;3136;48.788;9.772;2022-12-29T14:07:49;12.00;1.00
6206;DHT22;3136;48.788;9.772;2022-12-29T14:10:32;12.00;1.00
6206;DHT22;3136;48.788;9.772;2022-12-29T14:15:39;11.90;1.00
6206;DHT22;3136;48.788;9.772;2022-12-29T14:18:16;11.90;1.00
6206;DHT22;3136;48.788;9.772;2022-12-29T14:25:59;12.00;1.00
6206;DHT22;3136;48.788;9.772;2022-12-29T14:28:29;12.00;1.00
6206;DHT22;3136;48.788;9.772;2022-12-29T14:30:58;12.10;1.00
6206;DHT22;3136;48.788;9.772;2022-12-29T14:33:26;12.10;1.00
6206;DHT22;3136;48.788;9.772;2022-12-29T14:35:53;12.10;1.00
6206;DHT22;3136;48.788;9.772;2022-12-29T14:38:22;12.20;1.00
6206;DHT22;3136;48.788;9.772;2022-12-29T14:40:48;12.20;1.00
6206;DHT22;3136;48.788;9.772;2022-12-29T14:43:24;12.50;1.00
6206;DHT22;3136;48.788;9.772;2022-12-29T14:46:01;12.30;1.00
6206;DHT22;3136;48.788;9.772;2022-12-29T14:50:57;12.30;99.90
6206;DHT22;3136;48.788;9.772;2022-12-29T14:53:46;12.20;1.00
6206;DHT22;3136;48.788;9.772;2022-12-29T14:56:15;12.10;99.90
6206;DHT22;3136;48.788;9.772;2022-12-29T14:58:48;12.10;1.00
6206;DHT22;3136;48.788;9.772;2022-12-29T15:01:39;12.10;1.00
6206;DHT22;3136;48.788;9.772;2022-12-29T15:04:32;12.00;1.00
6206;DHT22;3136;48.788;9.772;2022-12-29T15:06:59;11.90;1.00
6206;DHT22;3136;48.788;9.772;2022-12-29T15:09:35;11.80;1.00
6206;DHT22;3136;48.788;9.772;2022-12-29T15:12:20;11.70;1.00
6206;DHT22;3136;48.788;9.772;2022-12-29T15:14:52;11.50;1.00
6206;DHT22;3136;48.788;9.772;2022-12-29T15:17:32;11.30;1.00
6206;DHT22;3136;48.788;9.772;2022-12-29T15:20:00;11.20;1.00
6206;DHT22;3136;48.788;9.772;2022-12-29T15:22:27;11.00;1.00
6206;DHT22;3136;48.788;9.772;2022-12-29T15:24:54;10.90;92.40
6206;DHT22;3136;48.788;9.772;2022-12-29T15:27:22;10.80;99.90
6206;DHT22;3136;48.788;9.772;2022-12-29T15:29:58;10.60;99.90
6206;DHT22;3136;48.788;9.772;2022-12-29T15:32:26;10.50;1.00
6206;DHT22;3136;48.788;9.772;2022-12-29T15:34:56;10.40;1.00
6206;DHT22;3136;48.788;9.772;2022-12-29T15:37:28;10.20;1.00
6206;DHT22;3136;48.788;9.772;2022-12-29T15:39:57;10.10;99.90
6206;DHT22;3136;48.788;9.772;2022-12-29T15:45:13;10.10;1.00
6206;DHT22;3136;48.788;9.772;2022-12-29T15:47:42;10.00;1.00
6206;DHT22;3136;48.788;9.772;2022-12-29T15:50:24;10.10;1.00
6206;DHT22;3136;48.788;9.772;2022-12-29T15:52:51;10.00;1.00
6206;DHT22;3136;48.788;9.772;2022-12-29T15:55:40;10.00;1.00
6206;DHT22;3136;48.788;9.772;2022-12-29T15:58:21;9.90;1.00
6206;DHT22;3136;48.788;9.772;2022-12-29T16:00:49;9.90;1.00
6206;DHT22;3136;48.788;9.772;2022-12-29T16:03:16;9.80;1.00
6206;DHT22;3136;48.788;9.772;2022-12-29T16:05:53;9.80;54.20
6206;DHT22;3136;48.788;9.772;2022-12-29T16:08:30;9.80;99.90
6206;DHT22;3136;48.788;9.772;2022-12-29T16:10:59;9.80;99.90
6206;DHT22;3136;48.788;9.772;2022-12-29T16:13:32;9.80;99.90
6206;DHT22;3136;48.788;9.772;2022-12-29T16:16:08;9.80;1.00
6206;DHT22;3136;48.788;9.772;2022-12-29T16:18:36;9.90;1.00
6206;DHT22;3136;48.788;9.772;2022-12-29T16:21:05;9.90;1.00
6206;DHT22;3136;48.788;9.772;2022-12-29T16:23:37;9.90;1.00
6206;DHT22;3136;48.788;9.772;2022-12-29T16:26:03;9.80;1.00
6206;DHT22;3136;48.788;9.772;2022-12-29T16:28:39;9.90;1.00
6206;DHT22;3136;48.788;9.772;2022-12-29T16:32:02;10.00;99.90
6206;DHT22;3136;48.788;9.772;2022-12-29T16:34:23;10.10;99.90
6206;DHT22;3136;48.788;9.772;2022-12-29T16:37:27;10.10;99.90
6206;DHT22;3136;48.788;9.772;2022-12-29T16:39:53;10.10;99.90
6206;DHT22;3136;48.788;9.772;2022-12-29T16:50:30;10.10;1.00
6206;DHT22;3136;48.788;9.772;2022-12-29T16:52:55;10.10;1.00
6206;DHT22;3136;48.788;9.772;2022-12-29T16:55:21;10.10;1.00
6206;DHT22;3136;48.788;9.772;2022-12-29T16:57:48;10.20;1.00
6206;DHT22;3136;48.788;9.772;2022-12-29T17:00:25;10.20;1.00
6206;DHT22;3136;48.788;9.772;2022-12-29T17:02:54;10.10;99.90
6206;DHT22;3136;48.788;9.772;2022-12-29T17:05:21;9.80;1.00
6206;DHT22;3136;48.788;9.772;2022-12-29T17:07:47;9.80;99.90
6206;DHT22;3136;48.788;9.772;2022-12-29T17:10:13;9.40;1.00
6206;DHT22;3136;48.788;9.772;2022-12-29T17:12:40;9.30;1.00
6206;DHT22;3136;48.788;9.772;2022-12-29T17:17:43;9.10;1.00
6206;DHT22;3136;48.788;9.772;2022-12-29T17:22:35;8.90;1.00
6206;DHT22;3136;48.788;9.772;2022-12-29T17:25:01;8.90;99.90
6206;DHT22;3136;48.788;9.772;2022-12-29T17:27:36;8.80;1.00
6206;DHT22;3136;48.788;9.772;2022-12-29T17:30:11;8.80;1.00
6206;DHT22;3136;48.788;9.772;2022-12-29T17:32:39;8.80;30.00
6206;DHT22;3136;48.788;9.772;2022-12-29T17:35:05;8.70;99.90
6206;DHT22;3136;48.788;9.772;2022-12-29T17:37:35;8.60;99.90
6206;DHT22;3136;48.788;9.772;2022-12-29T17:40:03;8.60;99.90
6206;DHT22;3136;48.788;9.772;2022-12-29T17:42:30;8.60;1.00
6206;DHT22;3136;48.788;9.772;2022-12-29T17:44:58;8.50;1.00
6206;DHT22;3136;48.788;9.772;2022-12-29T17:47:25;8.50;1.00
6206;DHT22;3136;48.788;9.772;2022-12-29T17:49:50;8.50;1.00
6206;DHT22;3136;48.788;9.772;2022-12-29T17:52:16;8.50;1.00
6206;DHT22;3136;48.788;9.772;2022-12-29T17:54:48;8.50;1.00
6206;DHT22;3136;48.788;9.772;2022-12-29T17:57:16;8.40;1.00
6206;DHT22;3136;48.788;9.772;2022-12-29T17:59:42;8.40;1.00
6206;DHT22;3136;48.788;9.772;2022-12-29T18:02:24;8.40;3.70
6206;DHT22;3136;48.788;9.772;2022-12-29T18:04:51;8.30;46.60
6206;DHT22;3136;48.788;9.772;2022-12-29T18:07:16;8.30;66.50
6206;DHT22;3136;48.788;9.772;2022-12-29T18:09:42;9.30;99.90
6206;DHT22;3136;48.788;9.772;2022-12-29T18:12:30;8.20;99.90
6206;DHT22;3136;48.788;9.772;2022-12-29T18:14:57;8.20;99.90
6206;DHT22;3136;48.788;9.772;2022-12-29T18:17:23;8.20;99.90
6206;DHT22;3136;48.788;9.772;2022-12-29T18:19:49;8.10;99.90
6206;DHT22;3136;48.788;9.772;2022-12-29T18:22:20;8.10;99.90
6206;DHT22;3136;48.788;9.772;2022-12-29T18:24:45;8.10;99.90
6206;DHT22;3136;48.788;9.772;2022-12-29T18:27:12;8.00;99.90
6206;DHT22;3136;48.788;9.772;2022-12-29T18:29:39;8.00;99.90
6206;DHT22;3136;48.788;9.772;2022-12-29T18:32:05;8.00;99.90
6206;DHT22;3136;48.788;9.772;2022-12-29T18:34:34;8.00;99.90
6206;DHT22;3136;48.788;9.772;2022-12-29T18:37:00;7.90;99.90
6206;DHT22;3136;48.788;9.772;2022-12-29T18:39:27;7.90;99.90
6206;DHT22;3136;48.788;9.772;2022-12-29T18:41:52;7.90;99.90
6206;DHT22;3136;48.788;9.772;2022-12-29T18:44:18;7.90;99.90
6206;DHT22;3136;48.788;9.772;2022-12-29T18:46:44;7.90;99.90
6206;DHT22;3136;48.788;9.772;2022-12-29T18:49:10;7.90;99.90
6206;DHT22;3136;48.788;9.772;2022-12-29T18:51:35;7.90;99.90
6206;DHT22;3136;48.788;9.772;2022-12-29T18:54:01;7.90;1.00
6206;DHT22;3136;48.788;9.772;2022-12-29T18:56:27;7.90;1.00
6206;DHT22;3136;48.788;9.772;2022-12-29T18:58:52;7.90;1.00
6206;DHT22;3136;48.788;9.772;2022-12-29T19:01:24;7.90;1.00
6206;DHT22;3136;48.788;9.772;2022-12-29T19:03:52;7.90;1.00
6206;DHT22;3136;48.788;9.772;2022-12-29T19:06:18;7.90;1.00